createdAt,value
2024-05-09T00:00:00.433Z,2.30
2024-05-09T00:06:43.016Z,1.80
2024-05-09T00:13:25.664Z,1.80
2024-05-09T00:20:17.422Z,2.08
2024-05-09T00:27:03.152Z,1.58
2024-05-09T00:33:45.797Z,1.67
2024-05-09T00:40:39.846Z,2.00
2024-05-09T00:47:25.094Z,1.70
2024-05-09T00:54:07.908Z,2.08
2024-05-09T01:00:54.496Z,2.03
2024-05-09T01:07:37.487Z,1.60
2024-05-09T01:14:20.385Z,2.10
2024-05-09T01:21:04.561Z,1.75
2024-05-09T01:27:47.057Z,1.80
2024-05-09T01:34:29.653Z,1.42
2024-05-09T01:41:12.153Z,1.88
2024-05-09T01:47:54.851Z,1.30
2024-05-09T01:54:37.511Z,1.50
2024-05-09T02:01:20.259Z,1.70
2024-05-09T02:08:02.883Z,1.27
2024-05-09T02:14:45.477Z,1.13
2024-05-09T02:21:28.014Z,0.90
2024-05-09T02:28:10.502Z,1.10
2024-05-09T02:34:53.034Z,1.88
2024-05-09T02:41:35.665Z,1.00
2024-05-09T02:48:18.380Z,1.20
2024-05-09T02:55:00.989Z,0.90
2024-05-09T03:01:43.686Z,0.95
2024-05-09T03:08:28.111Z,1.00
2024-05-09T03:15:10.640Z,0.93
2024-05-09T03:21:53.478Z,0.82
2024-05-09T03:28:35.964Z,1.10
2024-05-09T03:35:18.505Z,1.20
2024-05-09T03:42:01.155Z,1.05
2024-05-09T03:48:43.753Z,1.00
2024-05-09T03:55:26.327Z,0.70
2024-05-09T04:02:09.001Z,0.90
2024-05-09T04:08:51.688Z,0.80
2024-05-09T04:15:34.226Z,1.02
2024-05-09T04:22:17.386Z,1.00
2024-05-09T04:29:00.145Z,1.08
2024-05-09T04:35:44.051Z,1.20
2024-05-09T04:42:26.860Z,1.00
2024-05-09T04:49:09.458Z,1.05
2024-05-09T04:55:52.041Z,0.90
2024-05-09T05:02:34.757Z,0.90
2024-05-09T05:09:17.382Z,1.13
2024-05-09T05:16:00.024Z,1.25
2024-05-09T05:22:43.829Z,1.17
2024-05-09T05:29:26.486Z,1.35
2024-05-09T05:36:10.729Z,1.30
2024-05-09T05:42:53.346Z,1.30
2024-05-09T05:49:35.987Z,1.75
2024-05-09T05:56:18.633Z,1.40
2024-05-09T06:03:01.294Z,1.30
2024-05-09T06:09:45.348Z,1.48
2024-05-09T06:16:29.269Z,1.52
2024-05-09T06:23:13.010Z,1.80
2024-05-09T06:29:55.789Z,1.17
2024-05-09T06:36:41.620Z,1.30
2024-05-09T06:43:24.241Z,1.05
2024-05-09T06:50:13.320Z,1.00
2024-05-09T06:57:04.431Z,1.30
2024-05-09T07:03:47.044Z,2.25
2024-05-09T07:10:34.786Z,1.58
2024-05-09T07:17:18.645Z,1.50
2024-05-09T07:24:01.441Z,1.35
2024-05-09T07:30:44.805Z,1.30
2024-05-09T07:37:27.401Z,1.00
2024-05-09T07:44:10.018Z,1.23
2024-05-09T07:52:38.152Z,0.93
2024-05-09T07:57:55.781Z,0.98
2024-05-09T08:04:38.334Z,0.95
2024-05-09T08:11:21.040Z,1.35
2024-05-09T08:18:07.587Z,1.10
2024-05-09T08:24:50.477Z,0.90
2024-05-09T08:31:38.997Z,0.73
2024-05-09T08:38:21.503Z,0.90
2024-05-09T08:45:04.648Z,0.80
2024-05-09T08:51:47.219Z,1.23
2024-05-09T08:58:31.870Z,0.95
2024-05-09T09:05:17.249Z,0.90
2024-05-09T09:12:00.174Z,1.00
2024-05-09T09:18:50.112Z,1.08
2024-05-09T09:25:33.042Z,0.80
2024-05-09T09:32:15.627Z,0.73
2024-05-09T09:38:58.430Z,1.10
2024-05-09T09:45:44.535Z,0.95
2024-05-09T09:52:28.314Z,1.00
2024-05-09T09:59:14.231Z,1.08
2024-05-09T10:05:58.235Z,1.60
2024-05-09T10:19:28.683Z,1.27
2024-05-09T10:26:11.485Z,1.30
2024-05-09T10:32:57.232Z,1.20
2024-05-09T10:39:40.059Z,1.10
2024-05-09T10:46:22.732Z,1.50
2024-05-09T10:53:05.500Z,1.05
2024-05-09T10:59:50.390Z,1.42
2024-05-09T11:06:35.170Z,1.10
2024-05-09T11:13:31.740Z,1.30
2024-05-09T11:20:22.602Z,1.10
2024-05-09T11:27:09.540Z,1.30
2024-05-09T11:33:54.853Z,1.15
2024-05-09T11:40:40.890Z,1.52
2024-05-09T11:47:23.643Z,1.10
2024-05-09T11:54:06.540Z,1.27
2024-05-09T12:00:49.305Z,1.13
2024-05-09T12:07:32.001Z,1.53
2024-05-09T12:14:14.687Z,1.20
2024-05-09T12:20:57.259Z,1.13
2024-05-09T12:27:40.259Z,1.07
2024-05-09T12:34:22.840Z,1.10
2024-05-09T12:41:05.569Z,1.30
2024-05-09T12:47:49.549Z,1.15
2024-05-09T12:54:33.753Z,1.00
2024-05-09T13:01:16.468Z,1.10
2024-05-09T13:07:59.287Z,1.35
2024-05-09T13:14:41.910Z,1.20
2024-05-09T13:21:25.159Z,1.00
2024-05-09T13:28:08.374Z,1.27
2024-05-09T13:34:51.071Z,1.13
2024-05-09T13:41:33.647Z,1.67
2024-05-09T13:48:16.631Z,1.20
2024-05-09T13:54:59.515Z,1.20
2024-05-09T14:01:42.186Z,1.42
2024-05-09T14:08:24.942Z,1.45
2024-05-09T14:15:07.796Z,1.10
2024-05-09T14:21:51.489Z,1.50
2024-05-09T14:28:34.544Z,1.10
2024-05-09T14:35:17.172Z,1.57
2024-05-09T14:41:59.877Z,1.30
2024-05-09T14:48:42.862Z,0.93
2024-05-09T14:55:25.386Z,1.35
2024-05-09T15:02:08.207Z,0.97
2024-05-09T15:08:57.100Z,1.13
2024-05-09T15:15:40.730Z,3.05
2024-05-09T15:22:23.425Z,0.90
2024-05-09T15:29:06.197Z,1.13
2024-05-09T15:35:51.526Z,1.40
2024-05-09T15:42:34.263Z,0.90
2024-05-09T15:49:17.069Z,1.40
2024-05-09T15:55:59.767Z,1.53
2024-05-09T16:02:42.572Z,1.00
2024-05-09T16:09:25.262Z,2.07
2024-05-09T16:16:08.361Z,1.47
2024-05-09T16:22:51.508Z,1.60
2024-05-09T16:29:34.354Z,1.30
2024-05-09T16:36:17.080Z,1.20
2024-05-09T16:43:00.219Z,1.77
2024-05-09T16:49:43.002Z,3.03
2024-05-09T16:56:26.255Z,4.63
2024-05-09T17:03:15.296Z,2.08
2024-05-09T17:09:58.639Z,2.08
2024-05-09T17:16:41.337Z,1.85
2024-05-09T17:23:23.878Z,2.28
2024-05-09T17:30:08.120Z,2.17
2024-05-09T17:36:55.331Z,2.92
2024-05-09T17:43:38.011Z,1.83
2024-05-09T17:50:30.313Z,3.05
2024-05-09T17:57:17.019Z,3.15
2024-05-09T18:03:59.663Z,3.58
2024-05-09T18:10:42.862Z,1.77
2024-05-09T18:17:26.371Z,2.77
2024-05-09T18:24:10.333Z,2.17
2024-05-09T18:37:36.667Z,2.22
2024-05-09T18:44:19.212Z,2.33
2024-05-09T18:51:02.150Z,1.80
2024-05-09T18:57:44.835Z,2.33
2024-05-09T19:04:27.573Z,2.42
2024-05-09T19:11:10.316Z,1.90
2024-05-09T19:17:53.244Z,1.88
2024-05-09T19:24:35.883Z,2.90
2024-05-09T19:31:18.945Z,2.40
2024-05-09T19:38:02.288Z,2.22
2024-05-09T19:44:44.778Z,2.00
2024-05-09T19:51:27.329Z,2.30
2024-05-09T19:58:11.550Z,2.55
2024-05-09T20:04:55.073Z,2.58
2024-05-09T20:11:38.971Z,2.40
2024-05-09T20:18:21.658Z,2.40
2024-05-09T20:25:04.599Z,2.58
2024-05-09T20:31:47.537Z,3.33
2024-05-09T20:38:30.126Z,4.15
2024-05-09T20:45:12.662Z,3.67
2024-05-09T20:51:55.274Z,3.03
2024-05-09T20:58:37.810Z,3.20
2024-05-09T21:05:20.466Z,3.85
2024-05-09T21:12:03.003Z,3.58
2024-05-09T21:18:45.725Z,4.15
2024-05-09T21:25:28.209Z,5.50
2024-05-09T21:32:10.933Z,3.50
2024-05-09T21:38:53.582Z,4.13
2024-05-09T21:45:37.103Z,3.20
2024-05-09T21:52:19.985Z,3.30
2024-05-09T21:59:02.488Z,2.10
2024-05-09T22:05:45.497Z,2.35
2024-05-09T22:12:28.168Z,2.25
2024-05-09T22:19:10.697Z,2.22
2024-05-09T22:25:53.448Z,1.80
2024-05-09T22:32:36.331Z,2.70
2024-05-09T22:39:18.920Z,1.67
2024-05-09T22:46:03.346Z,1.92
2024-05-09T22:52:45.920Z,2.78
2024-05-09T22:59:30.390Z,3.85
2024-05-09T23:06:12.990Z,5.82
2024-05-09T23:12:55.870Z,4.97
2024-05-09T23:19:38.520Z,5.65
2024-05-09T23:26:21.095Z,4.95
2024-05-09T23:33:04.801Z,4.40
2024-05-09T23:39:47.620Z,4.13
2024-05-09T23:46:30.276Z,4.72
2024-05-09T23:53:14.435Z,4.95
2024-05-09T23:59:57.366Z,4.15
